createdAt,value
2018-11-07T00:00:08.924Z,100682.81
2018-11-07T00:05:11.145Z,100677.30
2018-11-07T00:10:13.365Z,100669.69
2018-11-07T00:15:15.923Z,100673.67
2018-11-07T00:20:18.099Z,100674.73
2018-11-07T00:25:20.250Z,100678.23
2018-11-07T00:30:22.411Z,100662.60
2018-11-07T00:35:24.458Z,100654.60
2018-11-07T00:40:26.564Z,100652.61
2018-11-07T00:45:28.682Z,100658.71
2018-11-07T00:50:30.785Z,100657.17
2018-11-07T00:55:32.906Z,100659.28
2018-11-07T01:00:35.050Z,100654.25
2018-11-07T01:05:37.175Z,100647.91
2018-11-07T01:10:39.555Z,100652.66
2018-11-07T01:15:41.696Z,100667.24
2018-11-07T01:20:43.853Z,100660.77
2018-11-07T01:25:46.047Z,100649.55
2018-11-07T01:30:48.167Z,100639.17
2018-11-07T01:35:50.300Z,100636.19
2018-11-07T01:40:52.442Z,100629.75
2018-11-07T01:45:54.538Z,100629.75
2018-11-07T01:50:56.654Z,100629.63
2018-11-07T01:55:58.768Z,100623.47
2018-11-07T02:01:00.921Z,100617.25
2018-11-07T02:06:03.403Z,100616.11
2018-11-07T02:11:05.551Z,100610.06
2018-11-07T02:16:07.716Z,100592.34
2018-11-07T02:21:09.892Z,100574.14
2018-11-07T02:26:12.150Z,100599.56
2018-11-07T02:31:14.252Z,100601.82
2018-11-07T02:36:16.350Z,100589.11
2018-11-07T02:41:18.539Z,100585.55
2018-11-07T02:46:20.676Z,100573.01
2018-11-07T02:51:22.807Z,100567.37
2018-11-07T02:56:24.935Z,100554.84
2018-11-07T03:01:27.970Z,100556.58
2018-11-07T03:06:30.124Z,100553.53
2018-11-07T03:11:32.251Z,100547.00
2018-11-07T03:16:34.381Z,100529.91
2018-11-07T03:21:36.494Z,100537.98
2018-11-07T03:26:38.599Z,100527.11
2018-11-07T03:31:40.691Z,100532.95
2018-11-07T03:36:42.820Z,100533.42
2018-11-07T03:41:44.941Z,100536.97
2018-11-07T03:46:47.066Z,100541.80
2018-11-07T03:51:49.154Z,100543.80
2018-11-07T03:56:51.271Z,100541.30
2018-11-07T04:01:53.362Z,100548.70
2018-11-07T04:06:55.496Z,100548.75
2018-11-07T04:11:57.601Z,100537.98
2018-11-07T04:16:59.731Z,100525.27
2018-11-07T04:22:01.822Z,100535.41
2018-11-07T04:27:03.995Z,100540.38
2018-11-07T04:32:06.109Z,100527.13
2018-11-07T04:37:08.238Z,100529.89
2018-11-07T04:42:10.352Z,100548.13
2018-11-07T04:47:12.451Z,100538.83
2018-11-07T04:52:14.564Z,100547.52
2018-11-07T04:57:16.691Z,100537.97
2018-11-07T05:02:18.986Z,100539.63
2018-11-07T05:07:21.075Z,100540.63
2018-11-07T05:12:23.192Z,100558.36
2018-11-07T05:17:25.355Z,100574.11
2018-11-07T05:22:27.485Z,100567.36
2018-11-07T05:27:29.639Z,100551.21
2018-11-07T05:32:31.735Z,100545.19
2018-11-07T05:37:33.876Z,100554.64
2018-11-07T05:42:36.009Z,100551.46
2018-11-07T05:47:38.354Z,100553.94
2018-11-07T05:52:41.015Z,100566.37
2018-11-07T05:57:43.122Z,100567.15
2018-11-07T06:02:45.238Z,100564.16
2018-11-07T06:07:47.363Z,100570.98
2018-11-07T06:12:49.527Z,100569.23
2018-11-07T06:17:58.465Z,100575.95
2018-11-07T06:23:00.674Z,100589.41
2018-11-07T06:28:02.791Z,100577.26
2018-11-07T06:33:05.118Z,100564.75
2018-11-07T06:38:07.254Z,100567.27
2018-11-07T06:43:09.387Z,100553.98
2018-11-07T06:48:11.487Z,100579.63
2018-11-07T06:53:13.608Z,100587.60
2018-11-07T06:58:15.703Z,100573.49
2018-11-07T07:03:17.803Z,100582.08
2018-11-07T07:08:19.972Z,100584.96
2018-11-07T07:13:22.103Z,100577.09
2018-11-07T07:18:24.229Z,100581.19
2018-11-07T07:23:26.334Z,100578.85
2018-11-07T07:28:28.482Z,100594.09
2018-11-07T07:33:30.631Z,100592.67
2018-11-07T07:38:32.706Z,100589.39
2018-11-07T07:43:34.825Z,100598.47
2018-11-07T07:48:36.950Z,100601.75
2018-11-07T07:53:39.053Z,100594.59
2018-11-07T07:58:41.147Z,100613.60
2018-11-07T08:03:43.270Z,100614.30
2018-11-07T08:08:45.411Z,100621.64
2018-11-07T08:13:47.547Z,100628.20
2018-11-07T08:18:49.653Z,100634.05
2018-11-07T08:23:51.756Z,100636.40
2018-11-07T08:28:53.982Z,100633.24
2018-11-07T08:33:56.340Z,100644.77
2018-11-07T08:38:58.470Z,100652.20
2018-11-07T08:44:00.616Z,100656.30
2018-11-07T08:49:02.744Z,100653.02
2018-11-07T08:54:04.883Z,100659.91
2018-11-07T08:59:07.004Z,100657.23
2018-11-07T09:04:09.106Z,100647.81
2018-11-07T09:09:11.573Z,100658.30
2018-11-07T09:14:13.719Z,100664.89
2018-11-07T09:19:15.818Z,100673.60
2018-11-07T09:24:18.029Z,100685.31
2018-11-07T09:29:20.463Z,100680.08
2018-11-07T09:34:22.536Z,100685.20
2018-11-07T09:39:24.723Z,100679.77
2018-11-07T09:44:26.881Z,100681.77
2018-11-07T09:49:29.030Z,100684.09
2018-11-07T09:54:31.537Z,100682.09
2018-11-07T09:59:33.790Z,100680.89
2018-11-07T10:04:35.865Z,100695.39
2018-11-07T10:09:38.008Z,100696.55
2018-11-07T10:14:40.125Z,100694.02
2018-11-07T10:19:42.463Z,100689.95
2018-11-07T10:24:44.635Z,100679.03
2018-11-07T10:29:47.175Z,100682.33
2018-11-07T10:34:48.975Z,100679.58
2018-11-07T10:39:51.246Z,100680.27
2018-11-07T10:44:53.279Z,100676.49
2018-11-07T10:49:55.462Z,100675.80
2018-11-07T10:54:57.585Z,100688.05
2018-11-07T10:59:59.758Z,100690.80
2018-11-07T11:05:01.946Z,100688.59
2018-11-07T11:10:04.277Z,100695.09
2018-11-07T11:15:06.431Z,100697.58
2018-11-07T11:20:10.593Z,100700.81
2018-11-07T11:25:12.699Z,100696.80
2018-11-07T11:30:14.847Z,100694.83
2018-11-07T18:38:57.178Z,100907.40
2018-11-07T18:43:59.443Z,100916.13
2018-11-07T18:49:01.616Z,100923.94
2018-11-07T18:54:04.715Z,100933.22
2018-11-07T18:59:06.910Z,100935.32
2018-11-07T19:04:09.220Z,100942.47
2018-11-07T19:09:11.720Z,100940.67
2018-11-07T19:14:14.210Z,100943.39
2018-11-07T19:19:17.692Z,100939.80
2018-11-07T19:24:20.254Z,100943.59
2018-11-07T19:29:22.719Z,100943.88
2018-11-07T19:34:25.627Z,100952.52
2018-11-07T19:39:28.544Z,100956.94
2018-11-07T19:44:34.337Z,100964.42
2018-11-07T19:49:38.065Z,100977.52
2018-11-07T19:54:40.631Z,100974.50
2018-11-07T19:59:44.253Z,100982.45
2018-11-07T20:04:49.231Z,100984.34
2018-11-07T20:09:53.530Z,100988.12
2018-11-07T20:14:59.739Z,100989.89
2018-11-07T20:20:05.728Z,100997.41
2018-11-07T20:25:11.963Z,101004.64
2018-11-07T20:30:19.056Z,101011.57
2018-11-07T20:35:22.964Z,101015.48
2018-11-07T20:40:27.684Z,101015.09
2018-11-07T20:45:31.359Z,101023.03
2018-11-07T20:50:35.228Z,101024.59
2018-11-07T20:55:38.426Z,101021.13
2018-11-07T21:00:42.557Z,101031.36
2018-11-07T21:05:45.160Z,101042.11
2018-11-07T21:10:48.505Z,101046.38
2018-11-07T21:15:51.219Z,101051.61
2018-11-07T21:20:53.747Z,101057.77
2018-11-07T21:25:56.096Z,101056.33
2018-11-07T21:30:58.599Z,101051.39
2018-11-07T21:36:00.789Z,101058.55
2018-11-07T21:41:02.990Z,101063.73
2018-11-07T21:46:05.235Z,101062.75
2018-11-07T21:51:07.381Z,101065.99
2018-11-07T21:56:09.513Z,101063.29
2018-11-07T22:01:11.659Z,101070.52
2018-11-07T22:06:13.810Z,101067.81
2018-11-07T22:11:16.012Z,101074.72
2018-11-07T22:16:18.157Z,101086.69
2018-11-07T22:21:20.282Z,101089.98
2018-11-07T22:26:22.429Z,101097.95
2018-11-07T22:31:24.744Z,101093.17
2018-11-07T22:36:26.855Z,101097.86
2018-11-07T22:41:28.980Z,101099.21
2018-11-07T22:46:31.159Z,101107.98
2018-11-07T22:51:33.268Z,101103.84
2018-11-07T22:56:35.391Z,101109.64
2018-11-07T23:01:38.422Z,101107.17
2018-11-07T23:06:40.572Z,101113.58
2018-11-07T23:11:43.857Z,101119.02
2018-11-07T23:16:46.014Z,101126.27
2018-11-07T23:21:48.168Z,101126.98
2018-11-07T23:26:50.326Z,101124.89
2018-11-07T23:31:52.466Z,101137.05
2018-11-07T23:36:54.578Z,101135.53
2018-11-07T23:41:56.671Z,101132.34
2018-11-07T23:46:58.808Z,101140.24
2018-11-07T23:52:00.951Z,101142.66
2018-11-07T23:57:03.083Z,101149.34
